sensor_id;sensor_type;location;lat;lon;timestamp;P1;durP1;ratioP1;P2;durP2;ratioP2
10517;SDS011;5307;42.548;22.968;2023-06-04T00:00:07;17.35;;;9.25;;
10517;SDS011;5307;42.548;22.968;2023-06-04T00:02:35;12.35;;;8.45;;
10517;SDS011;5307;42.548;22.968;2023-06-04T00:05:02;10.15;;;8.25;;
10517;SDS011;5307;42.548;22.968;2023-06-04T00:07:29;16.73;;;8.40;;
10517;SDS011;5307;42.548;22.968;2023-06-04T00:09:56;11.27;;;7.60;;
10517;SDS011;5307;42.548;22.968;2023-06-04T00:12:23;15.15;;;8.77;;
10517;SDS011;5307;42.548;22.968;2023-06-04T00:14:50;14.63;;;8.15;;
10517;SDS011;5307;42.548;22.968;2023-06-04T00:17:17;10.80;;;8.27;;
10517;SDS011;5307;42.548;22.968;2023-06-04T00:19:45;11.40;;;8.25;;
10517;SDS011;5307;42.548;22.968;2023-06-04T00:22:11;10.30;;;8.40;;
10517;SDS011;5307;42.548;22.968;2023-06-04T00:24:38;10.18;;;8.02;;
10517;SDS011;5307;42.548;22.968;2023-06-04T00:27:06;15.20;;;8.50;;
10517;SDS011;5307;42.548;22.968;2023-06-04T00:29:34;12.30;;;8.48;;
10517;SDS011;5307;42.548;22.968;2023-06-04T00:32:00;12.82;;;8.85;;
10517;SDS011;5307;42.548;22.968;2023-06-04T00:34:27;14.32;;;8.07;;
10517;SDS011;5307;42.548;22.968;2023-06-04T00:36:55;11.73;;;8.23;;
10517;SDS011;5307;42.548;22.968;2023-06-04T00:39:22;12.23;;;8.38;;
10517;SDS011;5307;42.548;22.968;2023-06-04T00:41:49;11.68;;;7.55;;
10517;SDS011;5307;42.548;22.968;2023-06-04T00:44:16;13.18;;;7.03;;
10517;SDS011;5307;42.548;22.968;2023-06-04T00:46:42;9.52;;;7.20;;
10517;SDS011;5307;42.548;22.968;2023-06-04T00:49:12;12.27;;;7.70;;
10517;SDS011;5307;42.548;22.968;2023-06-04T00:51:39;11.13;;;8.25;;
10517;SDS011;5307;42.548;22.968;2023-06-04T00:54:07;13.57;;;8.40;;
10517;SDS011;5307;42.548;22.968;2023-06-04T00:56:34;13.10;;;8.18;;
10517;SDS011;5307;42.548;22.968;2023-06-04T00:59:02;15.10;;;9.13;;
10517;SDS011;5307;42.548;22.968;2023-06-04T01:01:31;12.45;;;9.35;;
10517;SDS011;5307;42.548;22.968;2023-06-04T01:04:05;20.50;;;9.68;;
10517;SDS011;5307;42.548;22.968;2023-06-04T01:06:43;12.50;;;9.65;;
10517;SDS011;5307;42.548;22.968;2023-06-04T01:09:12;19.85;;;11.45;;
10517;SDS011;5307;42.548;22.968;2023-06-04T01:11:40;41.97;;;14.75;;
10517;SDS011;5307;42.548;22.968;2023-06-04T01:14:07;25.20;;;14.00;;
10517;SDS011;5307;42.548;22.968;2023-06-04T01:16:36;35.78;;;15.50;;
10517;SDS011;5307;42.548;22.968;2023-06-04T01:19:11;50.72;;;15.82;;
10517;SDS011;5307;42.548;22.968;2023-06-04T01:21:55;46.35;;;17.38;;
10517;SDS011;5307;42.548;22.968;2023-06-04T01:24:32;45.33;;;16.98;;
10517;SDS011;5307;42.548;22.968;2023-06-04T01:27:02;47.03;;;18.38;;
10517;SDS011;5307;42.548;22.968;2023-06-04T01:29:32;51.22;;;18.35;;
10517;SDS011;5307;42.548;22.968;2023-06-04T01:32:01;65.22;;;19.85;;
10517;SDS011;5307;42.548;22.968;2023-06-04T01:34:29;53.38;;;19.85;;
10517;SDS011;5307;42.548;22.968;2023-06-04T01:36:55;55.53;;;19.67;;
10517;SDS011;5307;42.548;22.968;2023-06-04T01:39:22;56.47;;;19.15;;
10517;SDS011;5307;42.548;22.968;2023-06-04T01:41:50;53.67;;;19.17;;
10517;SDS011;5307;42.548;22.968;2023-06-04T01:44:17;53.63;;;18.38;;
10517;SDS011;5307;42.548;22.968;2023-06-04T01:46:45;53.80;;;19.13;;
10517;SDS011;5307;42.548;22.968;2023-06-04T01:49:11;58.28;;;18.77;;
10517;SDS011;5307;42.548;22.968;2023-06-04T01:51:38;54.95;;;19.67;;
10517;SDS011;5307;42.548;22.968;2023-06-04T01:54:05;45.67;;;19.15;;
10517;SDS011;5307;42.548;22.968;2023-06-04T01:56:32;60.60;;;21.88;;
10517;SDS011;5307;42.548;22.968;2023-06-04T01:59:00;61.78;;;22.65;;
10517;SDS011;5307;42.548;22.968;2023-06-04T02:01:27;77.07;;;24.90;;
10517;SDS011;5307;42.548;22.968;2023-06-04T02:03:54;84.20;;;25.83;;
10517;SDS011;5307;42.548;22.968;2023-06-04T02:06:20;86.28;;;24.55;;
10517;SDS011;5307;42.548;22.968;2023-06-04T02:08:49;145.48;;;25.52;;
10517;SDS011;5307;42.548;22.968;2023-06-04T02:11:19;239.02;;;26.15;;
10517;SDS011;5307;42.548;22.968;2023-06-04T02:13:45;186.93;;;26.75;;
10517;SDS011;5307;42.548;22.968;2023-06-04T02:16:14;134.70;;;23.90;;
10517;SDS011;5307;42.548;22.968;2023-06-04T02:18:41;94.38;;;21.45;;
10517;SDS011;5307;42.548;22.968;2023-06-04T02:21:07;90.22;;;20.63;;
10517;SDS011;5307;42.548;22.968;2023-06-04T02:23:34;65.50;;;20.05;;
10517;SDS011;5307;42.548;22.968;2023-06-04T02:26:01;55.90;;;19.52;;
10517;SDS011;5307;42.548;22.968;2023-06-04T02:28:28;33.17;;;16.73;;
10517;SDS011;5307;42.548;22.968;2023-06-04T02:30:55;32.92;;;16.75;;
10517;SDS011;5307;42.548;22.968;2023-06-04T02:33:23;36.03;;;18.45;;
10517;SDS011;5307;42.548;22.968;2023-06-04T02:35:49;47.17;;;18.45;;
10517;SDS011;5307;42.548;22.968;2023-06-04T02:38:16;33.08;;;18.23;;
10517;SDS011;5307;42.548;22.968;2023-06-04T02:40:43;34.58;;;16.75;;
10517;SDS011;5307;42.548;22.968;2023-06-04T02:43:10;37.90;;;16.58;;
10517;SDS011;5307;42.548;22.968;2023-06-04T02:45:37;35.45;;;16.70;;
10517;SDS011;5307;42.548;22.968;2023-06-04T02:48:04;31.83;;;16.08;;
10517;SDS011;5307;42.548;22.968;2023-06-04T02:50:32;31.70;;;15.48;;
10517;SDS011;5307;42.548;22.968;2023-06-04T02:52:58;34.60;;;15.20;;
10517;SDS011;5307;42.548;22.968;2023-06-04T02:55:25;29.23;;;15.52;;
10517;SDS011;5307;42.548;22.968;2023-06-04T02:57:52;35.40;;;15.27;;
10517;SDS011;5307;42.548;22.968;2023-06-04T03:00:19;28.15;;;14.77;;
10517;SDS011;5307;42.548;22.968;2023-06-04T03:02:46;26.63;;;13.60;;
10517;SDS011;5307;42.548;22.968;2023-06-04T03:05:14;26.67;;;14.48;;
10517;SDS011;5307;42.548;22.968;2023-06-04T03:07:44;29.15;;;14.80;;
10517;SDS011;5307;42.548;22.968;2023-06-04T03:10:12;35.28;;;16.30;;
10517;SDS011;5307;42.548;22.968;2023-06-04T03:12:40;40.67;;;18.92;;
10517;SDS011;5307;42.548;22.968;2023-06-04T03:15:07;38.22;;;18.50;;
10517;SDS011;5307;42.548;22.968;2023-06-04T03:17:35;41.45;;;20.00;;
10517;SDS011;5307;42.548;22.968;2023-06-04T03:20:02;37.00;;;17.77;;
10517;SDS011;5307;42.548;22.968;2023-06-04T03:22:29;35.53;;;17.50;;
10517;SDS011;5307;42.548;22.968;2023-06-04T03:25:00;31.42;;;17.38;;
10517;SDS011;5307;42.548;22.968;2023-06-04T03:27:27;32.88;;;17.40;;
10517;SDS011;5307;42.548;22.968;2023-06-04T03:29:53;32.58;;;16.27;;
10517;SDS011;5307;42.548;22.968;2023-06-04T03:32:20;30.58;;;16.83;;
10517;SDS011;5307;42.548;22.968;2023-06-04T03:34:47;27.35;;;16.15;;
10517;SDS011;5307;42.548;22.968;2023-06-04T03:37:14;28.38;;;16.30;;
10517;SDS011;5307;42.548;22.968;2023-06-04T03:39:40;36.00;;;18.20;;
10517;SDS011;5307;42.548;22.968;2023-06-04T03:42:09;33.83;;;17.90;;
10517;SDS011;5307;42.548;22.968;2023-06-04T03:44:35;34.40;;;17.27;;
10517;SDS011;5307;42.548;22.968;2023-06-04T03:47:02;32.95;;;17.75;;
10517;SDS011;5307;42.548;22.968;2023-06-04T03:49:29;29.58;;;17.52;;
10517;SDS011;5307;42.548;22.968;2023-06-04T03:51:56;35.30;;;18.17;;
10517;SDS011;5307;42.548;22.968;2023-06-04T03:54:23;34.50;;;20.52;;
10517;SDS011;5307;42.548;22.968;2023-06-04T03:56:49;41.85;;;19.95;;
10517;SDS011;5307;42.548;22.968;2023-06-04T03:59:18;37.85;;;20.00;;
10517;SDS011;5307;42.548;22.968;2023-06-04T04:01:44;31.70;;;18.73;;
10517;SDS011;5307;42.548;22.968;2023-06-04T04:04:11;30.65;;;18.70;;
10517;SDS011;5307;42.548;22.968;2023-06-04T04:06:38;33.58;;;19.23;;
10517;SDS011;5307;42.548;22.968;2023-06-04T04:09:05;38.47;;;19.95;;
10517;SDS011;5307;42.548;22.968;2023-06-04T04:11:32;35.58;;;20.30;;
10517;SDS011;5307;42.548;22.968;2023-06-04T04:13:59;34.08;;;20.92;;
10517;SDS011;5307;42.548;22.968;2023-06-04T04:16:27;33.10;;;20.13;;
10517;SDS011;5307;42.548;22.968;2023-06-04T04:18:54;36.17;;;19.70;;
10517;SDS011;5307;42.548;22.968;2023-06-04T04:21:21;33.97;;;19.30;;
10517;SDS011;5307;42.548;22.968;2023-06-04T04:23:48;35.38;;;21.95;;
10517;SDS011;5307;42.548;22.968;2023-06-04T04:26:16;35.25;;;19.83;;
10517;SDS011;5307;42.548;22.968;2023-06-04T04:28:43;32.47;;;20.27;;
10517;SDS011;5307;42.548;22.968;2023-06-04T04:31:10;31.10;;;17.88;;
10517;SDS011;5307;42.548;22.968;2023-06-04T04:33:38;29.35;;;17.45;;
10517;SDS011;5307;42.548;22.968;2023-06-04T04:36:05;27.42;;;16.45;;
10517;SDS011;5307;42.548;22.968;2023-06-04T04:38:37;27.58;;;16.38;;
10517;SDS011;5307;42.548;22.968;2023-06-04T04:41:05;30.63;;;18.27;;
10517;SDS011;5307;42.548;22.968;2023-06-04T04:43:33;33.45;;;18.27;;
10517;SDS011;5307;42.548;22.968;2023-06-04T04:46:01;33.65;;;17.98;;
10517;SDS011;5307;42.548;22.968;2023-06-04T04:48:28;32.30;;;18.20;;
10517;SDS011;5307;42.548;22.968;2023-06-04T04:50:56;33.13;;;18.55;;
10517;SDS011;5307;42.548;22.968;2023-06-04T04:53:22;32.00;;;18.63;;
10517;SDS011;5307;42.548;22.968;2023-06-04T04:55:49;28.50;;;17.23;;
10517;SDS011;5307;42.548;22.968;2023-06-04T04:58:16;27.95;;;17.35;;
10517;SDS011;5307;42.548;22.968;2023-06-04T05:00:43;28.58;;;17.83;;
10517;SDS011;5307;42.548;22.968;2023-06-04T05:03:10;29.73;;;17.75;;
10517;SDS011;5307;42.548;22.968;2023-06-04T05:05:37;28.40;;;17.80;;
10517;SDS011;5307;42.548;22.968;2023-06-04T05:08:05;30.80;;;17.60;;
10517;SDS011;5307;42.548;22.968;2023-06-04T05:10:32;30.30;;;18.58;;
10517;SDS011;5307;42.548;22.968;2023-06-04T05:13:01;26.40;;;17.88;;
10517;SDS011;5307;42.548;22.968;2023-06-04T05:15:30;25.95;;;17.23;;
10517;SDS011;5307;42.548;22.968;2023-06-04T05:17:56;25.27;;;16.33;;
10517;SDS011;5307;42.548;22.968;2023-06-04T05:20:25;29.13;;;16.90;;
10517;SDS011;5307;42.548;22.968;2023-06-04T05:22:52;27.15;;;16.88;;
10517;SDS011;5307;42.548;22.968;2023-06-04T05:25:21;24.20;;;16.40;;
10517;SDS011;5307;42.548;22.968;2023-06-04T05:27:48;35.45;;;16.13;;
10517;SDS011;5307;42.548;22.968;2023-06-04T05:30:15;24.67;;;16.25;;
10517;SDS011;5307;42.548;22.968;2023-06-04T05:32:42;24.30;;;15.82;;
10517;SDS011;5307;42.548;22.968;2023-06-04T05:35:09;25.10;;;15.30;;
10517;SDS011;5307;42.548;22.968;2023-06-04T05:37:37;30.15;;;16.15;;
10517;SDS011;5307;42.548;22.968;2023-06-04T05:40:06;23.25;;;14.55;;
10517;SDS011;5307;42.548;22.968;2023-06-04T05:42:35;21.67;;;16.02;;
10517;SDS011;5307;42.548;22.968;2023-06-04T05:45:02;30.52;;;16.95;;
10517;SDS011;5307;42.548;22.968;2023-06-04T05:47:32;25.77;;;16.20;;
10517;SDS011;5307;42.548;22.968;2023-06-04T05:49:59;27.80;;;16.75;;
10517;SDS011;5307;42.548;22.968;2023-06-04T05:52:26;27.05;;;17.20;;
10517;SDS011;5307;42.548;22.968;2023-06-04T05:54:52;30.30;;;18.58;;
10517;SDS011;5307;42.548;22.968;2023-06-04T05:57:20;33.28;;;21.48;;
10517;SDS011;5307;42.548;22.968;2023-06-04T05:59:48;31.73;;;20.08;;
10517;SDS011;5307;42.548;22.968;2023-06-04T06:02:22;30.05;;;18.17;;
10517;SDS011;5307;42.548;22.968;2023-06-04T06:04:49;33.35;;;18.92;;
10517;SDS011;5307;42.548;22.968;2023-06-04T06:07:22;35.38;;;17.80;;
10517;SDS011;5307;42.548;22.968;2023-06-04T06:09:49;28.25;;;17.77;;
10517;SDS011;5307;42.548;22.968;2023-06-04T06:12:15;30.98;;;16.75;;
10517;SDS011;5307;42.548;22.968;2023-06-04T06:14:42;30.42;;;17.73;;
10517;SDS011;5307;42.548;22.968;2023-06-04T06:17:10;26.30;;;17.95;;
10517;SDS011;5307;42.548;22.968;2023-06-04T06:19:38;23.70;;;16.08;;
10517;SDS011;5307;42.548;22.968;2023-06-04T06:22:06;23.40;;;15.85;;
10517;SDS011;5307;42.548;22.968;2023-06-04T06:24:32;24.05;;;15.55;;
10517;SDS011;5307;42.548;22.968;2023-06-04T06:26:59;21.55;;;16.23;;
10517;SDS011;5307;42.548;22.968;2023-06-04T06:29:26;22.33;;;12.70;;
10517;SDS011;5307;42.548;22.968;2023-06-04T06:31:53;21.70;;;13.13;;
10517;SDS011;5307;42.548;22.968;2023-06-04T06:34:21;20.58;;;13.07;;
10517;SDS011;5307;42.548;22.968;2023-06-04T06:36:48;18.92;;;11.15;;
10517;SDS011;5307;42.548;22.968;2023-06-04T06:39:15;18.35;;;12.05;;
10517;SDS011;5307;42.548;22.968;2023-06-04T06:41:42;17.15;;;12.20;;
10517;SDS011;5307;42.548;22.968;2023-06-04T06:44:09;14.38;;;11.85;;
10517;SDS011;5307;42.548;22.968;2023-06-04T06:46:35;20.55;;;13.10;;
10517;SDS011;5307;42.548;22.968;2023-06-04T06:49:02;14.48;;;12.13;;
10517;SDS011;5307;42.548;22.968;2023-06-04T06:51:31;18.85;;;12.07;;
10517;SDS011;5307;42.548;22.968;2023-06-04T06:53:57;23.67;;;13.48;;
10517;SDS011;5307;42.548;22.968;2023-06-04T06:56:24;18.27;;;12.48;;
10517;SDS011;5307;42.548;22.968;2023-06-04T06:58:51;19.80;;;12.45;;
10517;SDS011;5307;42.548;22.968;2023-06-04T07:01:18;24.88;;;12.70;;
10517;SDS011;5307;42.548;22.968;2023-06-04T07:03:44;24.10;;;14.05;;
10517;SDS011;5307;42.548;22.968;2023-06-04T07:06:11;21.95;;;13.52;;
10517;SDS011;5307;42.548;22.968;2023-06-04T07:08:40;22.05;;;13.20;;
10517;SDS011;5307;42.548;22.968;2023-06-04T07:11:07;22.90;;;15.93;;
10517;SDS011;5307;42.548;22.968;2023-06-04T07:13:37;20.05;;;15.15;;
10517;SDS011;5307;42.548;22.968;2023-06-04T07:16:04;23.75;;;14.27;;
10517;SDS011;5307;42.548;22.968;2023-06-04T07:18:31;17.40;;;13.68;;
10517;SDS011;5307;42.548;22.968;2023-06-04T07:20:58;21.45;;;13.38;;
10517;SDS011;5307;42.548;22.968;2023-06-04T07:23:25;22.33;;;15.23;;
10517;SDS011;5307;42.548;22.968;2023-06-04T07:25:53;21.48;;;14.18;;
10517;SDS011;5307;42.548;22.968;2023-06-04T07:28:21;23.00;;;15.40;;
10517;SDS011;5307;42.548;22.968;2023-06-04T07:30:48;29.00;;;15.63;;
10517;SDS011;5307;42.548;22.968;2023-06-04T07:33:15;24.17;;;15.80;;
10517;SDS011;5307;42.548;22.968;2023-06-04T07:35:42;29.80;;;14.73;;
10517;SDS011;5307;42.548;22.968;2023-06-04T07:38:08;27.08;;;14.23;;
10517;SDS011;5307;42.548;22.968;2023-06-04T07:40:35;20.58;;;14.65;;
10517;SDS011;5307;42.548;22.968;2023-06-04T07:43:03;21.20;;;14.25;;
10517;SDS011;5307;42.548;22.968;2023-06-04T07:45:30;21.20;;;13.38;;
10517;SDS011;5307;42.548;22.968;2023-06-04T07:47:57;21.20;;;12.95;;
10517;SDS011;5307;42.548;22.968;2023-06-04T07:50:24;16.88;;;12.63;;
10517;SDS011;5307;42.548;22.968;2023-06-04T07:52:51;19.40;;;12.27;;
10517;SDS011;5307;42.548;22.968;2023-06-04T07:55:18;23.10;;;12.45;;
10517;SDS011;5307;42.548;22.968;2023-06-04T07:57:45;19.50;;;12.98;;
10517;SDS011;5307;42.548;22.968;2023-06-04T08:00:14;22.00;;;13.43;;
10517;SDS011;5307;42.548;22.968;2023-06-04T08:02:42;16.75;;;11.75;;
10517;SDS011;5307;42.548;22.968;2023-06-04T08:05:09;16.63;;;11.35;;
10517;SDS011;5307;42.548;22.968;2023-06-04T08:07:38;17.60;;;12.20;;
10517;SDS011;5307;42.548;22.968;2023-06-04T08:10:06;24.80;;;16.17;;
10517;SDS011;5307;42.548;22.968;2023-06-04T08:12:33;26.75;;;19.33;;
10517;SDS011;5307;42.548;22.968;2023-06-04T08:15:00;20.02;;;13.65;;
10517;SDS011;5307;42.548;22.968;2023-06-04T08:17:28;19.77;;;13.90;;
10517;SDS011;5307;42.548;22.968;2023-06-04T08:19:55;24.58;;;14.57;;
10517;SDS011;5307;42.548;22.968;2023-06-04T08:22:22;23.35;;;14.27;;
10517;SDS011;5307;42.548;22.968;2023-06-04T08:24:49;17.40;;;14.27;;
10517;SDS011;5307;42.548;22.968;2023-06-04T08:27:16;21.02;;;14.48;;
10517;SDS011;5307;42.548;22.968;2023-06-04T08:29:42;16.25;;;14.02;;
10517;SDS011;5307;42.548;22.968;2023-06-04T08:32:10;20.30;;;14.77;;
10517;SDS011;5307;42.548;22.968;2023-06-04T08:34:40;24.50;;;14.57;;
10517;SDS011;5307;42.548;22.968;2023-06-04T08:37:07;24.70;;;15.32;;
10517;SDS011;5307;42.548;22.968;2023-06-04T08:39:34;21.50;;;15.13;;
10517;SDS011;5307;42.548;22.968;2023-06-04T08:42:03;21.77;;;15.65;;
10517;SDS011;5307;42.548;22.968;2023-06-04T08:44:33;23.05;;;15.50;;
10517;SDS011;5307;42.548;22.968;2023-06-04T08:47:01;20.08;;;15.30;;
10517;SDS011;5307;42.548;22.968;2023-06-04T08:49:31;22.20;;;15.73;;
10517;SDS011;5307;42.548;22.968;2023-06-04T08:52:03;18.27;;;14.05;;
10517;SDS011;5307;42.548;22.968;2023-06-04T08:54:31;21.63;;;15.50;;
10517;SDS011;5307;42.548;22.968;2023-06-04T08:56:58;17.42;;;13.80;;
10517;SDS011;5307;42.548;22.968;2023-06-04T08:59:27;27.58;;;15.98;;
10517;SDS011;5307;42.548;22.968;2023-06-04T09:01:54;17.17;;;13.43;;
10517;SDS011;5307;42.548;22.968;2023-06-04T09:04:21;18.08;;;14.60;;
10517;SDS011;5307;42.548;22.968;2023-06-04T09:06:49;21.65;;;15.02;;
10517;SDS011;5307;42.548;22.968;2023-06-04T09:09:17;21.90;;;15.45;;
10517;SDS011;5307;42.548;22.968;2023-06-04T09:11:48;21.70;;;15.27;;
10517;SDS011;5307;42.548;22.968;2023-06-04T09:14:18;20.23;;;14.50;;
10517;SDS011;5307;42.548;22.968;2023-06-04T09:16:46;19.42;;;14.95;;
10517;SDS011;5307;42.548;22.968;2023-06-04T09:19:13;20.65;;;14.75;;
10517;SDS011;5307;42.548;22.968;2023-06-04T09:21:47;20.55;;;13.98;;
10517;SDS011;5307;42.548;22.968;2023-06-04T09:24:15;22.50;;;14.43;;
10517;SDS011;5307;42.548;22.968;2023-06-04T09:26:43;20.00;;;15.25;;
10517;SDS011;5307;42.548;22.968;2023-06-04T09:29:10;22.25;;;14.63;;
10517;SDS011;5307;42.548;22.968;2023-06-04T09:31:37;16.95;;;13.85;;
10517;SDS011;5307;42.548;22.968;2023-06-04T09:34:05;16.13;;;13.88;;
10517;SDS011;5307;42.548;22.968;2023-06-04T09:36:32;19.27;;;13.52;;
10517;SDS011;5307;42.548;22.968;2023-06-04T09:39:00;15.63;;;11.85;;
10517;SDS011;5307;42.548;22.968;2023-06-04T09:41:27;10.75;;;7.95;;
10517;SDS011;5307;42.548;22.968;2023-06-04T09:44:00;11.80;;;9.27;;
10517;SDS011;5307;42.548;22.968;2023-06-04T09:46:29;14.55;;;10.45;;
10517;SDS011;5307;42.548;22.968;2023-06-04T09:48:59;14.38;;;11.30;;
10517;SDS011;5307;42.548;22.968;2023-06-04T09:51:28;19.58;;;10.55;;
10517;SDS011;5307;42.548;22.968;2023-06-04T09:53:56;10.52;;;9.32;;
10517;SDS011;5307;42.548;22.968;2023-06-04T09:56:24;15.40;;;10.48;;
10517;SDS011;5307;42.548;22.968;2023-06-04T09:58:54;14.40;;;11.25;;
10517;SDS011;5307;42.548;22.968;2023-06-04T10:01:25;13.85;;;11.27;;
10517;SDS011;5307;42.548;22.968;2023-06-04T10:03:53;17.63;;;11.75;;
10517;SDS011;5307;42.548;22.968;2023-06-04T10:06:21;16.30;;;11.20;;
10517;SDS011;5307;42.548;22.968;2023-06-04T10:08:50;10.38;;;8.52;;
10517;SDS011;5307;42.548;22.968;2023-06-04T10:11:18;10.77;;;9.07;;
10517;SDS011;5307;42.548;22.968;2023-06-04T10:13:53;15.38;;;9.05;;
10517;SDS011;5307;42.548;22.968;2023-06-04T10:16:24;6.82;;;5.95;;
10517;SDS011;5307;42.548;22.968;2023-06-04T10:18:52;16.67;;;6.03;;
10517;SDS011;5307;42.548;22.968;2023-06-04T10:21:21;8.48;;;5.93;;
10517;SDS011;5307;42.548;22.968;2023-06-04T10:23:49;13.40;;;7.85;;
10517;SDS011;5307;42.548;22.968;2023-06-04T10:26:16;10.57;;;5.70;;
10517;SDS011;5307;42.548;22.968;2023-06-04T10:28:44;9.82;;;6.15;;
10517;SDS011;5307;42.548;22.968;2023-06-04T10:31:11;9.35;;;6.63;;
10517;SDS011;5307;42.548;22.968;2023-06-04T10:33:40;7.05;;;6.28;;
10517;SDS011;5307;42.548;22.968;2023-06-04T10:36:16;9.43;;;6.78;;
10517;SDS011;5307;42.548;22.968;2023-06-04T10:38:45;7.70;;;5.97;;
10517;SDS011;5307;42.548;22.968;2023-06-04T10:41:16;6.85;;;5.82;;
10517;SDS011;5307;42.548;22.968;2023-06-04T10:43:43;6.75;;;5.40;;
10517;SDS011;5307;42.548;22.968;2023-06-04T10:46:11;7.38;;;4.95;;
10517;SDS011;5307;42.548;22.968;2023-06-04T10:48:46;5.68;;;5.07;;
10517;SDS011;5307;42.548;22.968;2023-06-04T10:51:14;7.20;;;5.55;;
10517;SDS011;5307;42.548;22.968;2023-06-04T10:53:42;6.30;;;5.70;;
10517;SDS011;5307;42.548;22.968;2023-06-04T10:56:09;8.77;;;5.57;;
10517;SDS011;5307;42.548;22.968;2023-06-04T10:58:35;7.82;;;5.10;;
10517;SDS011;5307;42.548;22.968;2023-06-04T11:01:02;6.32;;;5.72;;
10517;SDS011;5307;42.548;22.968;2023-06-04T11:03:35;9.35;;;5.70;;
10517;SDS011;5307;42.548;22.968;2023-06-04T11:06:13;6.05;;;5.03;;
10517;SDS011;5307;42.548;22.968;2023-06-04T11:08:41;5.32;;;4.78;;
10517;SDS011;5307;42.548;22.968;2023-06-04T11:11:12;6.95;;;5.45;;
10517;SDS011;5307;42.548;22.968;2023-06-04T11:13:39;7.18;;;5.63;;
10517;SDS011;5307;42.548;22.968;2023-06-04T11:16:14;6.07;;;5.40;;
10517;SDS011;5307;42.548;22.968;2023-06-04T11:18:42;8.27;;;5.38;;
10517;SDS011;5307;42.548;22.968;2023-06-04T11:21:10;9.18;;;5.90;;
10517;SDS011;5307;42.548;22.968;2023-06-04T11:23:40;10.25;;;6.05;;
10517;SDS011;5307;42.548;22.968;2023-06-04T11:26:07;5.57;;;4.95;;
10517;SDS011;5307;42.548;22.968;2023-06-04T11:28:34;8.50;;;5.28;;
10517;SDS011;5307;42.548;22.968;2023-06-04T11:31:01;6.85;;;5.53;;
10517;SDS011;5307;42.548;22.968;2023-06-04T11:33:40;6.05;;;4.90;;
10517;SDS011;5307;42.548;22.968;2023-06-04T11:36:10;7.60;;;5.70;;
10517;SDS011;5307;42.548;22.968;2023-06-04T11:38:36;7.82;;;5.00;;
10517;SDS011;5307;42.548;22.968;2023-06-04T11:41:03;8.35;;;5.22;;
10517;SDS011;5307;42.548;22.968;2023-06-04T11:43:31;6.47;;;5.15;;
10517;SDS011;5307;42.548;22.968;2023-06-04T11:46:00;6.82;;;4.90;;
10517;SDS011;5307;42.548;22.968;2023-06-04T11:48:32;8.13;;;4.97;;
10517;SDS011;5307;42.548;22.968;2023-06-04T11:50:59;6.35;;;4.60;;
10517;SDS011;5307;42.548;22.968;2023-06-04T11:53:35;8.48;;;5.25;;
10517;SDS011;5307;42.548;22.968;2023-06-04T11:56:03;6.07;;;5.07;;
10517;SDS011;5307;42.548;22.968;2023-06-04T11:58:30;6.95;;;4.97;;
10517;SDS011;5307;42.548;22.968;2023-06-04T12:01:02;7.18;;;5.10;;
10517;SDS011;5307;42.548;22.968;2023-06-04T12:03:36;6.03;;;5.40;;
10517;SDS011;5307;42.548;22.968;2023-06-04T12:06:13;8.68;;;5.10;;
10517;SDS011;5307;42.548;22.968;2023-06-04T12:08:49;6.35;;;5.60;;
10517;SDS011;5307;42.548;22.968;2023-06-04T12:14:03;11.73;;;7.75;;
10517;SDS011;5307;42.548;22.968;2023-06-04T12:16:31;11.15;;;9.30;;
10517;SDS011;5307;42.548;22.968;2023-06-04T12:19:07;16.65;;;10.52;;
10517;SDS011;5307;42.548;22.968;2023-06-04T12:21:35;11.90;;;9.52;;
10517;SDS011;5307;42.548;22.968;2023-06-04T12:24:07;13.13;;;9.88;;
10517;SDS011;5307;42.548;22.968;2023-06-04T12:26:34;15.38;;;10.48;;
10517;SDS011;5307;42.548;22.968;2023-06-04T12:29:09;17.17;;;10.20;;
10517;SDS011;5307;42.548;22.968;2023-06-04T12:31:37;13.63;;;10.60;;
10517;SDS011;5307;42.548;22.968;2023-06-04T12:34:04;17.00;;;10.57;;
10517;SDS011;5307;42.548;22.968;2023-06-04T12:36:31;18.52;;;12.05;;
10517;SDS011;5307;42.548;22.968;2023-06-04T12:39:01;29.15;;;13.73;;
10517;SDS011;5307;42.548;22.968;2023-06-04T12:41:30;37.58;;;15.77;;
10517;SDS011;5307;42.548;22.968;2023-06-04T12:43:58;28.25;;;16.30;;
10517;SDS011;5307;42.548;22.968;2023-06-04T12:46:25;28.70;;;16.13;;
10517;SDS011;5307;42.548;22.968;2023-06-04T12:48:53;25.63;;;16.08;;
10517;SDS011;5307;42.548;22.968;2023-06-04T12:51:20;25.27;;;14.35;;
10517;SDS011;5307;42.548;22.968;2023-06-04T12:53:47;16.50;;;10.75;;
10517;SDS011;5307;42.548;22.968;2023-06-04T12:56:14;9.98;;;7.60;;
10517;SDS011;5307;42.548;22.968;2023-06-04T12:58:42;13.35;;;8.02;;
10517;SDS011;5307;42.548;22.968;2023-06-04T13:01:09;13.65;;;8.55;;
10517;SDS011;5307;42.548;22.968;2023-06-04T13:03:37;20.13;;;10.00;;
10517;SDS011;5307;42.548;22.968;2023-06-04T13:06:04;21.73;;;10.80;;
10517;SDS011;5307;42.548;22.968;2023-06-04T13:08:30;18.33;;;11.68;;
10517;SDS011;5307;42.548;22.968;2023-06-04T13:10:57;16.40;;;12.55;;
10517;SDS011;5307;42.548;22.968;2023-06-04T13:13:25;22.15;;;14.02;;
10517;SDS011;5307;42.548;22.968;2023-06-04T13:15:53;22.10;;;14.18;;
10517;SDS011;5307;42.548;22.968;2023-06-04T13:18:20;22.48;;;13.80;;
10517;SDS011;5307;42.548;22.968;2023-06-04T13:20:46;19.55;;;15.00;;
10517;SDS011;5307;42.548;22.968;2023-06-04T13:23:14;23.40;;;15.93;;
10517;SDS011;5307;42.548;22.968;2023-06-04T13:25:41;27.17;;;14.43;;
10517;SDS011;5307;42.548;22.968;2023-06-04T13:28:08;20.83;;;15.15;;
10517;SDS011;5307;42.548;22.968;2023-06-04T13:30:35;22.92;;;16.13;;
10517;SDS011;5307;42.548;22.968;2023-06-04T13:33:03;19.10;;;14.18;;
10517;SDS011;5307;42.548;22.968;2023-06-04T13:35:30;18.45;;;8.43;;
10517;SDS011;5307;42.548;22.968;2023-06-04T13:37:57;6.40;;;4.82;;
10517;SDS011;5307;42.548;22.968;2023-06-04T13:40:24;4.88;;;3.70;;
10517;SDS011;5307;42.548;22.968;2023-06-04T13:42:51;6.50;;;3.95;;
10517;SDS011;5307;42.548;22.968;2023-06-04T13:45:17;6.85;;;4.20;;
10517;SDS011;5307;42.548;22.968;2023-06-04T13:47:45;8.73;;;3.90;;
10517;SDS011;5307;42.548;22.968;2023-06-04T13:50:14;6.25;;;3.83;;
10517;SDS011;5307;42.548;22.968;2023-06-04T13:52:41;13.57;;;3.92;;
10517;SDS011;5307;42.548;22.968;2023-06-04T13:55:08;4.28;;;3.63;;
10517;SDS011;5307;42.548;22.968;2023-06-04T13:57:35;3.90;;;3.53;;
10517;SDS011;5307;42.548;22.968;2023-06-04T14:00:02;8.25;;;3.33;;
10517;SDS011;5307;42.548;22.968;2023-06-04T14:02:31;7.07;;;3.17;;
10517;SDS011;5307;42.548;22.968;2023-06-04T14:04:58;8.40;;;4.82;;
10517;SDS011;5307;42.548;22.968;2023-06-04T14:07:26;19.05;;;13.80;;
10517;SDS011;5307;42.548;22.968;2023-06-04T14:09:53;11.85;;;8.55;;
10517;SDS011;5307;42.548;22.968;2023-06-04T14:12:21;30.95;;;22.08;;
10517;SDS011;5307;42.548;22.968;2023-06-04T14:14:47;20.58;;;15.38;;
10517;SDS011;5307;42.548;22.968;2023-06-04T14:17:14;13.18;;;8.88;;
10517;SDS011;5307;42.548;22.968;2023-06-04T14:19:41;10.40;;;8.43;;
10517;SDS011;5307;42.548;22.968;2023-06-04T14:22:09;12.77;;;8.93;;
10517;SDS011;5307;42.548;22.968;2023-06-04T14:24:37;12.85;;;8.45;;
10517;SDS011;5307;42.548;22.968;2023-06-04T14:27:07;9.25;;;8.13;;
10517;SDS011;5307;42.548;22.968;2023-06-04T14:29:34;8.48;;;7.05;;
10517;SDS011;5307;42.548;22.968;2023-06-04T14:32:01;9.98;;;6.40;;
10517;SDS011;5307;42.548;22.968;2023-06-04T14:34:29;12.00;;;6.78;;